Data for 05/12/2009

Time Sea-Level Adjusted Pressure Absolute Pressure Temperature Relative Humidity Dew Point   
(mb) (inHg) (mb) (inHg) (C) (F) (%) (C) (F)
00:05 1013 29.91 842 24.86 7.2 44.9 63 0.7 33.2
00:10 1012 29.88 842 24.86 7.2 45 62 0.5 32.9
00:15 1012 29.88 842 24.86 7.3 45.1 62 0.5 32.9
00:20 1012 29.88 842 24.86 7.2 45 62 0.5 33
00:25 1012 29.88 842 24.86 7.1 44.9 62 0.4 32.7
00:30 1012 29.88 841 24.83 7.1 44.8 62 0.3 32.5
00:35 1012 29.88 841 24.83 7 44.6 62 0.3 32.6
00:40 1012 29.88 841 24.83 6.8 44.3 62 0.2 32.3
00:45 1012 29.88 841 24.83 6.8 44.3 63 0.2 32.4
00:50 1012 29.88 841 24.83 6.8 44.2 62 0 32.1
00:55 1012 29.88 841 24.83 6.7 44.1 63 0.2 32.4
01:00 1012 29.88 841 24.83 6.7 44 63 0.1 32.1
01:05 1012 29.88 841 24.83 6.6 43.8 63 0 32
01:10 1012 29.88 841 24.83 6.5 43.6 64 0.1 32.2
01:15 1012 29.88 841 24.83 6.3 43.4 65 0.2 32.4
01:20 1012 29.88 841 24.83 6.2 43.2 64 0 32.1
01:25 1012 29.88 841 24.83 6.2 43.2 64 -0.1 31.9
01:30 1012 29.88 841 24.83 6 42.8 65 0 32
01:35 1012 29.88 841 24.83 5.9 42.6 66 -0 32
01:40 1012 29.88 841 24.83 5.6 42.1 67 -0 31.9
01:45 1011 29.85 841 24.83 5.5 41.9 67 -0.1 31.7
01:50 1011 29.85 841 24.83 5.4 41.8 68 0 32
01:55 1011 29.85 841 24.83 5.2 41.4 69 -0.1 31.9
02:00 1011 29.85 841 24.83 5.4 41.7 67 -0.3 31.5
02:05 1011 29.85 841 24.83 5.8 42.4 66 -0 32
02:10 1011 29.85 840 24.81 5.9 42.6 66 -0 32
02:15 1011 29.85 840 24.81 5.7 42.3 67 0.1 32.3
02:20 1011 29.85 840 24.81 5.5 41.9 68 0.1 32.1
02:25 1011 29.85 840 24.81 5.3 41.6 69 0.1 32.2
02:30 1011 29.85 840 24.81 5.2 41.3 70 0.1 32.2
02:35 1011 29.85 840 24.81 5.2 41.4 68 -0.2 31.7
02:40 1011 29.85 840 24.81 5.5 41.8 68 0.1 32.2
02:45 1011 29.85 840 24.81 5.4 41.7 68 0 32
02:50 1011 29.85 840 24.81 5.4 41.7 68 0.1 32.1
02:55 1011 29.85 840 24.81 5.4 41.8 67 -0.2 31.7
03:00 1011 29.85 840 24.81 5.5 41.9 68 0 32
03:05 1011 29.85 840 24.81 5.5 41.9 68 0 32
03:10 1011 29.85 840 24.81 5.5 41.9 68 0.1 32.1
03:15 1011 29.85 840 24.81 5.4 41.8 69 0.1 32.2
03:20 1011 29.85 840 24.81 5.1 41.2 69 0 32
03:25 1011 29.85 840 24.81 5.1 41.1 69 -0 31.9
03:30 1011 29.85 840 24.81 5.2 41.3 69 -0.1 31.9
03:35 1010 29.83 840 24.81 5.2 41.4 69 -0 32
03:40 1010 29.83 840 24.81 5.2 41.4 69 -0.1 31.9
03:45 1010 29.83 840 24.81 5.2 41.3 69 -0 32
03:50 1010 29.83 839 24.78 5.2 41.4 68 -0.2 31.6
03:55 1010 29.83 839 24.78 5.5 41.9 66 -0.3 31.5
04:00 1010 29.83 839 24.78 5.6 42.1 67 -0 31.9
04:05 1010 29.83 839 24.78 5.5 41.9 67 -0.1 31.8
04:10 1010 29.83 839 24.78 5.5 41.9 67 -0 31.9
04:15 1010 29.83 839 24.78 5.6 42 66 -0.3 31.4
04:20 1010 29.83 839 24.78 5.7 42.3 66 -0.2 31.7
04:25 1010 29.83 839 24.78 5.7 42.3 65 -0.2 31.6
04:30 1010 29.83 839 24.78 5.7 42.2 66 -0.1 31.9
04:35 1010 29.83 839 24.78 5.4 41.7 68 -0.1 31.8
04:40 1010 29.83 839 24.78 5.1 41.2 68 -0.3 31.5
04:45 1010 29.83 839 24.78 5.1 41.2 68 -0.3 31.4
04:50 1010 29.83 839 24.78 5.1 41.1 68 -0.4 31.4
04:55 1010 29.83 839 24.78 5.1 41.2 69 -0.2 31.7
05:00 1010 29.83 839 24.78 4.8 40.7 68 -0.5 31.1
05:05 1010 29.83 839 24.78 4.9 40.9 69 -0.2 31.6
05:10 1010 29.83 839 24.78 4.8 40.6 68 -0.6 30.9
05:15 1010 29.83 839 24.78 5.1 41.3 67 -0.5 31
05:20 1010 29.83 839 24.78 5.4 41.7 66 -0.3 31.4
05:25 1009 29.8 839 24.78 5.5 41.8 67 -0.1 31.8
05:30 1009 29.8 839 24.78 5.2 41.3 70 0.2 32.3
05:35 1009 29.8 839 24.78 4.7 40.5 72 0 32.1
05:40 1009 29.8 839 24.78 4.5 40.1 71 -0.3 31.5
05:45 1010 29.83 839 24.78 4.7 40.4 71 -0.2 31.6
05:50 1010 29.83 839 24.78 4.6 40.3 73 0.2 32.4
05:55 1009 29.8 839 24.78 4.6 40.2 72 -0 31.9
06:00 1009 29.8 839 24.78 4.7 40.4 73 0.2 32.3
06:05 1009 29.8 839 24.78 4.7 40.5 71 -0.2 31.7
06:10 1009 29.8 839 24.78 5 41 70 -0.1 31.9
06:15 1010 29.83 839 24.78 5.2 41.4 70 0.1 32.2
06:20 1010 29.83 839 24.78 5.2 41.3 71 0.4 32.6
06:25 1010 29.83 839 24.78 5.2 41.4 70 0.3 32.5
06:30 1009 29.8 839 24.78 5.4 41.7 71 0.5 32.9
06:35 1009 29.8 839 24.78 5.6 42.1 71 0.9 33.5
06:40 1009 29.8 838 24.75 5.4 41.8 74 1.2 34.1
06:45 1009 29.8 838 24.75 5.3 41.5 74 1 33.8
06:50 1009 29.8 838 24.75 5.3 41.5 75 1.2 34.2
06:55 1009 29.8 838 24.75 5.4 41.7 75 1.3 34.3
07:00 1009 29.8 838 24.75 5.4 41.6 75 1.3 34.3
07:05 1009 29.8 838 24.75 5.4 41.7 74 1.1 34
07:10 1009 29.8 838 24.75 5.5 42 72 1 33.8
07:15 1009 29.8 838 24.75 5.7 42.2 70 0.7 33.3
07:20 1009 29.8 838 24.75 5.8 42.4 69 0.6 33.1
07:25 1009 29.8 838 24.75 5.9 42.6 69 0.6 33.1
07:30 1008 29.77 838 24.75 5.9 42.7 68 0.5 32.9
07:35 1008 29.77 838 24.75 6.1 42.9 68 0.6 33
07:40 1008 29.77 837 24.72 5.9 42.6 70 0.8 33.4
07:45 1008 29.77 837 24.72 5.7 42.3 71 0.8 33.5
07:50 1008 29.77 837 24.72 5.7 42.3 72 1.1 34
07:55 1008 29.77 837 24.72 5.6 42 72 0.9 33.6
08:00 1008 29.77 837 24.72 5.5 41.9 71 0.7 33.3
08:05 1008 29.77 837 24.72 5.7 42.2 71 0.8 33.4
08:10 1008 29.77 837 24.72 5.8 42.4 71 0.8 33.5
08:15 1008 29.77 837 24.72 5.9 42.7 69 0.8 33.4
08:20 1008 29.77 837 24.72 6.1 42.9 69 0.9 33.7
08:25 1007 29.74 837 24.72 6.2 43.2 69 0.9 33.6
08:30 1007 29.74 836 24.69 6.2 43.2 69 0.9 33.6
08:35 1007 29.74 836 24.69 6.4 43.6 67 0.7 33.3
08:40 1007 29.74 836 24.69 6.6 43.8 66 0.7 33.3
08:45 1007 29.74 836 24.69 6.7 44.1 65 0.7 33.3
08:50 1007 29.74 836 24.69 6.8 44.2 65 0.6 33.1
08:55 1007 29.74 836 24.69 6.8 44.3 65 0.8 33.4
09:00 1007 29.74 836 24.69 6.9 44.4 65 0.7 33.2
09:05 1007 29.74 836 24.69 7.1 44.7 64 0.6 33.2
09:10 1007 29.74 836 24.69 7.2 44.9 64 0.8 33.4
09:15 1007 29.74 836 24.69 7.3 45.1 64 0.9 33.5
09:20 1007 29.74 837 24.72 7.5 45.5 65 1.4 34.5
09:25 1008 29.77 837 24.72 7.4 45.4 73 2.8 37.1
09:30 1007 29.74 837 24.72 6.3 43.4 73 1.9 35.4
09:35 1007 29.74 836 24.69 5.8 42.5 77 2.1 35.8
09:40 1007 29.74 836 24.69 6 42.8 73 1.5 34.6
09:45 1006 29.71 836 24.69 6.1 43 76 2.1 35.8
09:50 1006 29.71 836 24.69 6.3 43.3 76 2.3 36.2
09:55 1006 29.71 836 24.69 6.4 43.6 78 2.9 37.3
10:00 1006 29.71 836 24.69 6.3 43.3 76 2.4 36.2
10:05 1006 29.71 836 24.69 6.2 43.2 78 2.7 36.9
10:10 1007 29.74 836 24.69 6.4 43.4 79 2.9 37.2
10:15 1007 29.74 836 24.69 6.8 44.2 73 2.4 36.3
10:20 1007 29.74 836 24.69 7 44.7 74 2.8 37
10:25 1007 29.74 836 24.69 6.7 44.1 76 2.9 37.2
10:30 1007 29.74 836 24.69 6.8 44.3 76 3 37.3
10:35 1007 29.74 836 24.69 6.9 44.3 79 3.4 38.2
10:40 1007 29.74 836 24.69 7.3 45.1 78 3.7 38.6
10:45 1007 29.74 836 24.69 7 44.6 76 3.1 37.5
10:50 1006 29.71 836 24.69 7.3 45.2 74 2.9 37.2
10:55 1006 29.71 836 24.69 7.6 45.8 70 2.5 36.4
11:00 1006 29.71 835 24.66 8.1 46.6 71 3.1 37.7
11:05 1006 29.71 835 24.66 8.7 47.7 64 2.3 36.1
11:10 1006 29.71 835 24.66 9.1 48.4 64 2.8 37
11:15 1006 29.71 835 24.66 10.3 50.5 59 2.7 36.9
11:20 1006 29.71 835 24.66 10.9 51.5 56 2.5 36.5
11:25 1006 29.71 835 24.66 10.6 51.1 57 2.6 36.7
11:30 1006 29.71 835 24.66 10.3 50.6 60 2.9 37.2
11:35 1006 29.71 835 24.66 10 49.9 59 2.3 36.2
11:40 1006 29.71 835 24.66 10.4 50.7 57 2.2 36
11:45 1006 29.71 835 24.66 10.2 50.4 59 2.7 36.9
11:50 1006 29.71 835 24.66 9.8 49.7 60 2.6 36.6
11:55 1006 29.71 835 24.66 8.6 47.4 68 3 37.3
12:00 1006 29.71 835 24.66 8 46.3 69 2.6 36.7
12:05 1006 29.71 835 24.66 8 46.4 66 2 35.6
12:10 1006 29.71 835 24.66 8.5 47.4 63 2 35.6
12:15 1006 29.71 835 24.66 8.5 47.2 66 2.5 36.5
12:20 1006 29.71 835 24.66 8.3 46.9 66 2.4 36.4
12:25 1006 29.71 835 24.66 8.8 47.8 62 1.9 35.5
12:30 1006 29.71 835 24.66 9 48.2 61 1.9 35.5
12:35 1006 29.71 835 24.66 8.9 47.9 62 2 35.6
12:40 1006 29.71 835 24.66 8.7 47.7 59 1.2 34.2
12:45 1006 29.71 835 24.66 8.5 47.3 60 1.1 34
12:50 1006 29.71 835 24.66 9 48.1 59 1.4 34.5
12:55 1006 29.71 836 24.69 8.7 47.7 58 1.1 33.9
13:00 1006 29.71 836 24.69 8.5 47.3 58 0.8 33.4
13:05 1007 29.74 836 24.69 8.1 46.6 59 0.6 33.1
13:10 1007 29.74 836 24.69 8.2 46.7 58 0.4 32.7
13:15 1007 29.74 836 24.69 8.4 47.1 56 0.3 32.5
13:20 1007 29.74 836 24.69 8.3 46.9 57 0.2 32.3
13:25 1007 29.74 836 24.69 8.1 46.6 55 -0.2 31.6
13:30 1007 29.74 836 24.69 7.8 46 58 0 32.1
13:35 1007 29.74 836 24.69 7.3 45.2 63 0.8 33.5
13:40 1007 29.74 836 24.69 6.8 44.3 65 0.8 33.5
13:45 1007 29.74 836 24.69 6.4 43.6 65 0.4 32.8
13:50 1007 29.74 836 24.69 6.3 43.3 69 1 33.8
13:55 1007 29.74 836 24.69 5.7 42.3 75 1.7 35
14:00 1007 29.74 836 24.69 5.1 41.1 80 1.8 35.3
14:05 1007 29.74 837 24.72 5 40.9 80 1.9 35.4
14:10 1007 29.74 837 24.72 5.1 41.2 79 1.7 35.1
14:15 1007 29.74 837 24.72 5.3 41.6 75 1.3 34.3
14:20 1007 29.74 837 24.72 5.6 42 76 1.6 34.9
14:25 1008 29.77 837 24.72 5.4 41.8 75 1.4 34.6
14:30 1008 29.77 837 24.72 5.3 41.5 78 1.8 35.2
14:35 1008 29.77 837 24.72 5 41 76 1 33.9
14:40 1008 29.77 837 24.72 4.6 40.2 76 0.8 33.4
14:45 1008 29.77 837 24.72 4.4 40 76 0.6 33.1
14:50 1008 29.77 837 24.72 4.4 39.9 77 0.8 33.4
14:55 1008 29.77 837 24.72 4.2 39.6 81 1.2 34.2
15:00 1008 29.77 837 24.72 3.9 39 81 1 33.8
15:05 1008 29.77 837 24.72 3.9 39 82 1.2 34.1
15:10 1008 29.77 837 24.72 3.7 38.7 81 0.7 33.3
15:15 1008 29.77 838 24.75 3.5 38.3 84 1 33.9
15:20 1009 29.8 838 24.75 3.1 37.6 86 1 33.7
15:25 1009 29.8 838 24.75 3.1 37.5 87 1.1 33.9
15:30 1009 29.8 838 24.75 3.2 37.8 87 1.2 34.2
15:35 1009 29.8 838 24.75 3.3 37.9 87 1.3 34.3
15:40 1009 29.8 838 24.75 3.1 37.7 88 1.3 34.4
15:45 1009 29.8 838 24.75 3 37.5 89 1.3 34.4
15:50 1009 29.8 838 24.75 2.5 36.5 90 1 33.8
15:55 1009 29.8 838 24.75 1.8 35.3 91 0.6 33
16:00 1009 29.8 838 24.75 2 35.5 92 0.8 33.5
16:05 1009 29.8 838 24.75 1.2 34.2 92 0.1 32.1
16:10 1009 29.8 839 24.78 0.1 32.2 95 -0.7 30.8
16:15 1010 29.83 839 24.78 -0.1 31.9 96 -0.7 30.8
16:20 1010 29.83 839 24.78 -0.1 31.9 96 -0.6 31
16:25 1010 29.83 839 24.78 -0.1 31.9 96 -0.7 30.8
16:30 1010 29.83 839 24.78 -0.2 31.7 96 -0.8 30.5
16:35 1010 29.83 839 24.78 -0 31.9 94 -0.9 30.4
16:40 1010 29.83 839 24.78 0.2 32.4 92 -0.9 30.5
16:45 1010 29.83 839 24.78 0.4 32.8 90 -1 30.2
16:50 1010 29.83 839 24.78 0.2 32.4 94 -0.7 30.8
16:55 1010 29.83 840 24.81 0.1 32.2 96 -0.5 31.1
17:00 1010 29.83 839 24.78 0.6 33.1 91 -0.7 30.7
17:05 1010 29.83 839 24.78 1.1 33.9 90 -0.4 31.3
17:10 1010 29.83 840 24.81 1.3 34.3 88 -0.4 31.2
17:15 1011 29.85 840 24.81 1 33.9 88 -0.8 30.6
17:20 1011 29.85 840 24.81 0.9 33.7 87 -1 30.2
17:25 1011 29.85 840 24.81 0.9 33.5 88 -0.8 30.5
17:30 1011 29.85 840 24.81 0.9 33.7 85 -1.3 29.7
17:35 1011 29.85 840 24.81 0.8 33.4 86 -1.4 29.5
17:40 1011 29.85 840 24.81 1 33.8 81 -2 28.5
17:45 1010 29.83 840 24.81 1.1 33.9 83 -1.5 29.3
17:50 1010 29.83 840 24.81 1 33.9 78 -2.3 27.9
17:55 1010 29.83 840 24.81 1.3 34.4 81 -1.6 29
18:00 1010 29.83 840 24.81 1.6 34.9 81 -1.3 29.6
18:05 1010 29.83 840 24.81 1.8 35.3 79 -1.4 29.4
18:10 1010 29.83 840 24.81 2 35.5 80 -1 30.1
18:15 1010 29.83 840 24.81 2.2 36 74 -1.9 28.5
18:20 1011 29.85 840 24.81 2.5 36.5 75 -1.4 29.5
18:25 1011 29.85 840 24.81 2.8 37 75 -1.3 29.7
18:30 1011 29.85 840 24.81 2.7 36.9 71 -2 28.4
18:35 1011 29.85 840 24.81 2.6 36.7 74 -1.5 29.3
18:40 1011 29.85 840 24.81 2.6 36.7 74 -1.6 29.1
18:45 1011 29.85 840 24.81 2.6 36.7 73 -1.7 28.9
18:50 1011 29.85 840 24.81 2.7 36.9 72 -1.8 28.8
18:55 1011 29.85 840 24.81 2.7 36.9 73 -1.6 29.1
19:00 1011 29.85 840 24.81 2.9 37.3 73 -1.5 29.3
19:05 1011 29.85 840 24.81 3 37.5 71 -1.7 29
19:10 1011 29.85 840 24.81 2.8 37.1 72 -1.8 28.8
19:15 1011 29.85 840 24.81 2.8 37.1 68 -2.6 27.4
19:20 1011 29.85 840 24.81 2.7 36.9 69 -2.3 27.8
19:25 1011 29.85 840 24.81 2.7 36.8 66 -3 26.5
19:30 1011 29.85 840 24.81 2.9 37.1 63 -3.5 25.7
19:35 1011 29.85 840 24.81 3 37.5 63 -3.3 26
19:40 1011 29.85 840 24.81 3.2 37.7 63 -3.3 26.1
19:45 1011 29.85 841 24.83 2.9 37.3 64 -3.1 26.4
19:50 1012 29.88 841 24.83 2.2 36 67 -3.3 26.1
19:55 1012 29.88 841 24.83 2.1 35.8 62 -4.5 24
20:00 1012 29.88 841 24.83 2.2 35.9 63 -4.2 24.5
20:05 1012 29.88 841 24.83 2.1 35.9 62 -4.4 24.2
20:10 1012 29.88 841 24.83 2.1 35.8 61 -4.7 23.6
20:15 1012 29.88 841 24.83 2.1 35.8 60 -4.8 23.4
20:20 1012 29.88 841 24.83 2.1 35.8 62 -4.5 23.9
20:25 1012 29.88 841 24.83 2.1 35.8 63 -4.2 24.4
20:30 1012 29.88 841 24.83 2 35.7 66 -3.8 25.2
20:35 1012 29.88 841 24.83 2 35.6 63 -4.4 24.2
20:40 1012 29.88 841 24.83 2 35.6 63 -4.3 24.3
20:45 1012 29.88 841 24.83 1.9 35.5 66 -3.7 25.4
20:50 1012 29.88 841 24.83 1.6 34.8 67 -3.9 25
20:55 1012 29.88 841 24.83 1.5 34.7 64 -4.5 23.9
21:00 1012 29.88 841 24.83 1.6 34.9 59 -5.6 21.9
21:05 1012 29.88 841 24.83 1.7 35 56 -6.1 20.9
21:10 1012 29.88 841 24.83 1.7 35.1 57 -5.9 21.4
21:15 1012 29.88 841 24.83 1.6 34.9 57 -6 21.3
21:20 1012 29.88 841 24.83 1.6 34.9 56 -6.2 20.9
21:25 1012 29.88 841 24.83 1.7 35.1 55 -6.4 20.4
21:30 1012 29.88 841 24.83 1.8 35.2 53 -6.8 19.8
21:35 1012 29.88 842 24.86 1.8 35.3 53 -6.7 19.9
21:40 1012 29.88 842 24.86 1.8 35.3 51 -7.2 19.1
21:45 1012 29.88 842 24.86 1.8 35.2 54 -6.5 20.2
21:50 1012 29.88 842 24.86 1.8 35.2 50 -7.6 18.3
21:55 1013 29.91 842 24.86 1.9 35.3 54 -6.5 20.2
22:00 1013 29.91 842 24.86 1.5 34.8 62 -5 23
22:05 1013 29.91 842 24.86 1.2 34.2 63 -5 23
22:10 1013 29.91 842 24.86 1.2 34.2 61 -5.6 22
22:15 1013 29.91 842 24.86 1.3 34.4 58 -6.1 21
22:20 1013 29.91 842 24.86 1.6 34.8 56 -6.2 20.8
22:25 1013 29.91 842 24.86 1.6 34.8 58 -5.8 21.6
22:30 1013 29.91 842 24.86 1.4 34.5 60 -5.6 22
22:35 1013 29.91 842 24.86 1.3 34.4 61 -5.3 22.4
22:40 1013 29.91 842 24.86 1.3 34.3 61 -5.3 22.4
22:45 1013 29.91 842 24.86 1.2 34.2 61 -5.4 22.3
22:50 1013 29.91 842 24.86 1.2 34.2 61 -5.5 22.2
22:55 1013 29.91 842 24.86 1.2 34.2 61 -5.6 21.9
23:00 1013 29.91 842 24.86 1.3 34.3 58 -6.1 21
23:05 1013 29.91 842 24.86 1.4 34.5 57 -6.1 20.9
23:10 1013 29.91 842 24.86 1.5 34.7 58 -5.9 21.4
23:15 1013 29.91 842 24.86 1.5 34.8 57 -6 21.2
23:20 1013 29.91 842 24.86 1.4 34.5 61 -5.3 22.4
23:25 1013 29.91 842 24.86 1.3 34.4 59 -5.9 21.4
23:30 1013 29.91 842 24.86 1.4 34.5 59 -5.9 21.5
23:35 1013 29.91 842 24.86 1.4 34.6 59 -5.7 21.8
23:40 1013 29.91 842 24.86 1.4 34.5 60 -5.6 21.9
23:45 1013 29.91 842 24.86 1.2 34.2 58 -6 21.1
23:50 1013 29.91 842 24.86 1.2 34.2 58 -6.2 20.8
23:55 1013 29.91 842 24.86 1.1 34 56 -6.7 20
24:00 1013 29.91 842 24.86 1.1 33.9 50 -8.3 17.1